Time;durP1;ratioP1;P1;durP2;ratioP2;P2;SDS_P1;SDS_P2;PMS_P1;PMS_P2;Temp;Humidity;BMP_temperature;BMP_pressure;BME280_temperature;BME280_humidity;BME280_pressure;Samples;Min_cycle;Max_cycle;Signal;HPM_P1;HPM_P2
2023/01/20 00:01:32;;;;;;;26.10;13.95;;;;;;;0.20;77.12;100705.06;4980848;28;20956;-52
2023/01/20 00:03:59;;;;;;;33.60;15.25;;;;;;;0.20;77.16;100708.53;4987304;28;20461;-53
2023/01/20 00:06:28;;;;;;;25.15;12.63;;;;;;;0.23;77.17;100716.22;4984544;28;20019;-52
2023/01/20 00:08:56;;;;;;;30.05;15.07;;;;;;;0.23;77.02;100712.78;4985991;28;20032;-52
2023/01/20 00:11:21;;;;;;;27.00;12.95;;;;;;;0.25;77.11;100711.88;4978826;28;20085;-56
2023/01/20 00:13:48;;;;;;;29.50;15.55;;;;;;;0.25;76.87;100724.81;4983112;28;20027;-53
2023/01/20 00:16:13;;;;;;;27.20;13.82;;;;;;;0.24;77.14;100735.19;4978874;28;20039;-53
2023/01/20 00:18:39;;;;;;;17.25;9.52;;;;;;;0.22;77.13;100737.81;4981910;28;20030;-52
2023/01/20 00:21:10;;;;;;;28.42;14.82;;;;;;;0.23;77.60;100736.06;4981893;28;20463;-55
2023/01/20 00:23:36;;;;;;;26.30;13.98;;;;;;;0.25;77.00;100748.09;4986795;28;20030;-54
2023/01/20 00:26:10;;;;;;;25.35;14.65;;;;;;;0.25;77.61;100742.94;4990172;28;20030;-52
2023/01/20 00:28:36;;;;;;;25.38;12.85;;;;;;;0.26;76.88;100748.97;4982042;28;20054;-56
2023/01/20 00:31:24;;;;;;;27.15;15.00;;;;;;;0.26;76.85;100751.56;4985028;28;20095;-53
2023/01/20 00:33:51;;;;;;;27.35;13.30;;;;;;;0.26;77.31;100751.56;4985931;28;20053;-53
2023/01/20 00:36:18;;;;;;;24.67;13.50;;;;;;;0.26;77.08;100757.59;4987594;28;20041;-54
2023/01/20 00:38:43;;;;;;;31.58;14.75;;;;;;;0.27;76.89;100755.88;4983064;28;20113;-54
2023/01/20 00:41:10;;;;;;;28.63;14.40;;;;;;;0.26;77.26;100754.16;4981368;28;20041;-54
2023/01/20 00:43:36;;;;;;;30.05;14.70;;;;;;;0.27;77.70;100750.69;4987830;28;20060;-51
2023/01/20 00:46:02;;;;;;;28.85;12.75;;;;;;;0.29;77.36;100760.13;4980144;28;20018;-53
2023/01/20 00:48:28;;;;;;;32.38;14.50;;;;;;;0.25;77.23;100755.88;4981185;28;20038;-54
2023/01/20 00:50:53;;;;;;;26.60;13.98;;;;;;;0.25;77.35;100755.88;4980266;28;20027;-52
2023/01/20 00:53:19;;;;;;;25.20;14.13;;;;;;;0.26;77.42;100757.59;4978948;28;20079;-51
2023/01/20 00:55:44;;;;;;;23.55;13.43;;;;;;;0.23;77.47;100749.84;4987568;28;20160;-55
2023/01/20 00:58:10;;;;;;;33.53;15.27;;;;;;;0.19;77.49;100758.56;4980540;28;20047;-53
2023/01/20 01:00:35;;;;;;;25.23;14.38;;;;;;;0.17;77.16;100762.91;4981816;28;20083;-56
2023/01/20 01:03:01;;;;;;;26.63;13.75;;;;;;;0.18;77.03;100767.19;4980942;28;20034;-54
2023/01/20 01:05:27;;;;;;;29.42;15.30;;;;;;;0.19;77.71;100768.91;4988531;28;20034;-55
2023/01/20 01:07:52;;;;;;;26.40;13.35;;;;;;;0.13;77.11;100769.88;4983067;28;20037;-51
2023/01/20 01:10:18;;;;;;;25.60;13.75;;;;;;;0.08;77.97;100774.25;4985691;28;20037;-53
2023/01/20 01:12:43;;;;;;;25.65;14.23;;;;;;;0.10;78.04;100776.78;4986963;28;20030;-54
2023/01/20 01:15:09;;;;;;;23.02;9.55;;;;;;;0.07;77.77;100776.84;4981717;28;20058;-52
2023/01/20 01:17:35;;;;;;;29.95;14.93;;;;;;;0.07;77.53;100779.44;4983214;28;20040;-55
2023/01/20 01:20:00;;;;;;;23.08;14.32;;;;;;;0.09;78.14;100785.44;4986189;28;20042;-55
2023/01/20 01:22:26;;;;;;;29.02;17.25;;;;;;;0.15;78.15;100782.75;4983008;28;20042;-54
2023/01/20 01:24:51;;;;;;;26.10;14.82;;;;;;;0.18;77.95;100785.31;4988459;28;20041;-52
2023/01/20 01:27:17;;;;;;;33.05;15.82;;;;;;;0.24;77.71;100786.97;4973073;28;20031;-52
2023/01/20 01:29:42;;;;;;;27.15;14.90;;;;;;;0.25;77.99;100789.50;4987664;28;20034;-51
2023/01/20 01:32:08;;;;;;;25.42;14.95;;;;;;;0.27;77.53;100787.75;4983793;28;20026;-54
2023/01/20 01:34:33;;;;;;;27.08;15.40;;;;;;;0.34;77.23;100798.03;4987885;28;20034;-54
2023/01/20 01:36:59;;;;;;;29.40;15.52;;;;;;;0.32;77.19;100797.22;4969367;28;20034;-52
2023/01/20 01:39:24;;;;;;;27.15;13.90;;;;;;;0.34;77.16;100798.03;4984372;28;20042;-52
2023/01/20 01:41:50;;;;;;;29.08;16.50;;;;;;;0.36;77.82;100791.13;4983887;28;20026;-54
2023/01/20 01:44:15;;;;;;;28.80;15.02;;;;;;;0.36;77.72;100793.69;4986510;28;20405;-55
2023/01/20 01:46:41;;;;;;;30.40;15.75;;;;;;;0.37;77.18;100792.84;4986987;28;20421;-52
2023/01/20 01:49:15;;;;;;;31.15;15.85;;;;;;;0.37;77.91;100798.84;4985389;28;20053;-54
2023/01/20 01:51:47;;;;;;;29.60;15.45;;;;;;;0.41;77.59;100805.69;4986851;28;20025;-54
2023/01/20 01:54:16;;;;;;;27.42;14.77;;;;;;;0.43;77.44;100808.25;4984480;28;20030;-55
2023/01/20 01:56:43;;;;;;;29.55;14.48;;;;;;;0.47;77.05;100804.75;4976712;28;20053;-55
2023/01/20 01:59:11;;;;;;;29.33;15.80;;;;;;;0.48;77.25;100805.59;4986276;28;20026;-52
2023/01/20 02:01:39;;;;;;;24.10;14.48;;;;;;;0.49;77.19;100807.31;4972775;28;20026;-51
2023/01/20 02:04:11;;;;;;;26.60;14.57;;;;;;;0.48;77.21;100811.63;4976284;28;20516;-51
2023/01/20 02:06:40;;;;;;;31.37;15.97;;;;;;;0.45;77.81;100809.09;4981613;28;20026;-51
2023/01/20 02:09:06;;;;;;;27.85;14.40;;;;;;;0.45;77.54;100811.69;4985705;28;20125;-51
2023/01/20 02:11:37;;;;;;;28.60;15.60;;;;;;;0.42;77.53;100811.72;4986020;28;20175;-51
2023/01/20 02:14:03;;;;;;;26.58;15.25;;;;;;;0.44;77.81;100808.25;4986438;28;20494;-53
2023/01/20 02:16:50;;;;;;;26.02;13.68;;;;;;;0.51;77.66;100815.91;4988570;28;20041;-55
2023/01/20 02:19:34;;;;;;;28.70;14.57;;;;;;;0.58;77.50;100813.22;4979028;28;20025;-52
2023/01/20 02:22:20;;;;;;;31.40;15.02;;;;;;;0.66;76.93;100825.19;4985574;28;20073;-52
2023/01/20 02:25:05;;;;;;;30.50;15.27;;;;;;;0.61;76.87;100833.00;4986445;28;20025;-51
2023/01/20 02:27:48;;;;;;;29.20;15.55;;;;;;;0.51;77.11;100832.31;4997080;28;20121;-55
2023/01/20 02:30:32;;;;;;;28.77;13.98;;;;;;;0.46;77.69;100828.94;4980405;28;20600;-52
2023/01/20 02:33:21;;;;;;;26.85;15.32;;;;;;;0.48;77.54;100836.66;4982831;28;20113;-50
2023/01/20 02:35:54;;;;;;;57.90;27.05;;;;;;;0.51;77.91;100842.69;4978275;28;20041;-53
2023/01/20 02:38:25;;;;;;;43.25;21.42;;;;;;;0.50;77.31;100846.13;4986642;28;20027;-52
2023/01/20 02:41:06;;;;;;;29.90;16.10;;;;;;;0.45;77.94;100834.97;4983271;28;20031;-52
2023/01/20 02:43:31;;;;;;;29.33;15.48;;;;;;;0.42;77.86;100837.59;4984528;28;20022;-52
2023/01/20 02:46:08;;;;;;;27.13;13.68;;;;;;;0.39;77.71;100837.66;4981500;28;20057;-54
2023/01/20 02:48:43;;;;;;;23.60;12.80;;;;;;;0.39;77.48;100842.81;4983008;28;20026;-52
2023/01/20 02:51:17;;;;;;;29.20;14.10;;;;;;;0.36;77.90;100848.06;4986337;28;20030;-51
2023/01/20 02:53:48;;;;;;;24.83;13.10;;;;;;;0.28;77.76;100851.59;4980183;28;20409;-51
2023/01/20 02:56:15;;;;;;;25.83;12.75;;;;;;;0.24;78.11;100854.25;4986147;28;20034;-52
2023/01/20 02:58:49;;;;;;;25.70;12.90;;;;;;;0.20;78.05;100861.22;4980772;28;20034;-51
2023/01/20 03:01:23;;;;;;;27.52;13.07;;;;;;;0.13;78.52;100857.84;4979387;28;20065;-50
2023/01/20 03:03:53;;;;;;;22.08;11.02;;;;;;;0.11;78.42;100866.47;4984199;28;20042;-55
2023/01/20 03:06:23;;;;;;;24.83;12.63;;;;;;;0.04;78.61;100868.28;4985883;28;20572;-52
2023/01/20 03:08:51;;;;;;;22.15;11.57;;;;;;;-0.04;79.03;100859.78;4984359;28;20082;-51
2023/01/20 03:11:17;;;;;;;24.60;12.32;;;;;;;-0.11;78.52;100864.16;4977235;28;20408;-53
2023/01/20 03:13:54;;;;;;;26.23;12.93;;;;;;;-0.14;79.20;100874.53;4982804;28;20038;-55
2023/01/20 03:16:24;;;;;;;24.60;12.80;;;;;;;-0.17;79.01;100877.16;4986102;28;20030;-52
2023/01/20 03:18:50;;;;;;;28.10;12.15;;;;;;;-0.19;79.10;100879.78;4989898;28;20069;-53
2023/01/20 03:21:16;;;;;;;21.42;10.88;;;;;;;-0.24;79.12;100880.69;4983631;28;20138;-52
2023/01/20 03:23:46;;;;;;;22.45;11.25;;;;;;;-0.34;79.12;100883.38;4988722;28;20529;-51
2023/01/20 03:26:13;;;;;;;29.17;12.98;;;;;;;-0.34;79.59;100882.53;4980063;28;20039;-53
2023/01/20 03:28:43;;;;;;;25.35;12.45;;;;;;;-0.41;79.45;100889.47;4985089;28;20104;-52
2023/01/20 03:31:20;;;;;;;21.80;10.82;;;;;;;-0.51;79.82;100898.19;4982178;28;20033;-55
2023/01/20 03:33:48;;;;;;;24.95;12.15;;;;;;;-0.60;79.99;100895.69;4984249;28;20555;-51
2023/01/20 03:36:15;;;;;;;29.45;14.15;;;;;;;-0.66;80.10;100902.63;4981254;28;20038;-52
2023/01/20 03:38:43;;;;;;;25.73;13.45;;;;;;;-0.71;80.36;100907.00;4984494;28;20106;-52
2023/01/20 03:41:40;;;;;;;17.33;8.23;;;;;;;-0.72;80.54;100917.31;4974476;28;20045;-52
2023/01/20 03:44:11;;;;;;;24.23;12.63;;;;;;;-0.69;80.74;100906.97;4974037;28;20038;-54
2023/01/20 03:47:14;;;;;;;27.83;12.02;;;;;;;-0.62;80.24;100919.81;4982713;28;20034;-54
2023/01/20 03:49:39;;;;;;;26.35;11.23;;;;;;;-0.53;79.84;100918.03;4985914;28;20528;-52
2023/01/20 03:52:17;;;;;;;30.17;12.98;;;;;;;-0.47;79.93;100929.19;4986450;28;20026;-55
2023/01/20 03:54:59;;;;;;;25.90;12.25;;;;;;;-0.40;79.49;100919.66;4981764;28;20061;-53
2023/01/20 03:57:32;;;;;;;29.95;13.90;;;;;;;-0.28;79.46;100933.31;4974773;28;20122;-51
2023/01/20 03:59:59;;;;;;;28.10;12.82;;;;;;;-0.31;79.56;100931.63;4981365;28;20042;-54
2023/01/20 04:02:26;;;;;;;36.05;14.20;;;;;;;-0.39;78.84;100936.88;4980717;28;20117;-51
2023/01/20 04:04:53;;;;;;;26.70;14.05;;;;;;;-0.37;79.71;100939.44;4974886;28;20096;-53
2023/01/20 04:07:25;;;;;;;26.55;14.63;;;;;;;-0.32;79.40;100948.84;4984518;28;20502;-52
2023/01/20 04:09:55;;;;;;;37.65;17.80;;;;;;;-0.35;79.27;100946.28;4985099;28;20042;-51
2023/01/20 04:12:21;;;;;;;36.00;16.48;;;;;;;-0.39;79.59;100962.72;4987333;28;20030;-55
2023/01/20 04:14:46;;;;;;;30.63;16.58;;;;;;;-0.33;78.99;100961.81;4985757;28;20548;-55
2023/01/20 04:17:12;;;;;;;30.80;15.10;;;;;;;-0.24;79.52;100966.88;4986777;28;20038;-50
2023/01/20 04:19:38;;;;;;;29.88;13.70;;;;;;;-0.16;78.55;100972.00;4979442;28;20038;-54
2023/01/20 04:22:46;;;;;;;31.08;13.90;;;;;;;-0.13;78.87;100969.38;4977769;28;20430;-51
2023/01/20 04:25:29;;;;;;;28.58;14.15;;;;;;;-0.04;79.01;100974.44;4985214;28;20032;-51
2023/01/20 04:27:54;;;;;;;29.38;13.38;;;;;;;0.05;78.47;100983.00;4988786;28;20649;-52
2023/01/20 04:30:20;;;;;;;19.60;11.07;;;;;;;0.10;78.65;100987.25;4985757;28;20035;-55
2023/01/20 04:32:45;;;;;;;23.40;10.15;;;;;;;0.16;78.94;100991.50;4986920;28;20035;-53
2023/01/20 04:35:17;;;;;;;22.95;9.90;;;;;;;0.21;78.66;100992.34;4989614;28;20041;-54
2023/01/20 04:37:42;;;;;;;22.40;10.00;;;;;;;0.23;78.52;100995.75;4984414;28;20493;-55
2023/01/20 04:40:09;;;;;;;10.25;5.85;;;;;;;0.26;78.91;101003.47;4984659;28;20088;-53
2023/01/20 04:42:35;;;;;;;15.88;8.65;;;;;;;0.29;79.11;101003.44;4982337;28;20027;-51
2023/01/20 04:45:00;;;;;;;20.17;9.63;;;;;;;0.27;78.75;101000.00;4988483;28;20038;-53
2023/01/20 04:47:30;;;;;;;26.20;9.98;;;;;;;0.30;78.56;101005.16;4988624;28;20520;-53
2023/01/20 04:49:55;;;;;;;22.75;10.27;;;;;;;0.33;78.48;101009.44;4984966;28;20053;-54
2023/01/20 04:52:21;;;;;;;22.30;9.65;;;;;;;0.35;78.92;101006.84;4986985;28;20485;-52
2023/01/20 04:54:46;;;;;;;19.23;9.40;;;;;;;0.45;79.02;101016.22;4980821;28;20050;-55
2023/01/20 04:57:11;;;;;;;18.73;9.05;;;;;;;0.56;78.40;101022.13;4983493;28;20026;-52
2023/01/20 04:59:37;;;;;;;19.35;9.07;;;;;;;0.54;78.62;101018.69;4983463;28;20029;-53
2023/01/20 05:02:02;;;;;;;21.83;8.30;;;;;;;0.57;78.72;101017.81;4991381;28;20026;-51
2023/01/20 05:04:28;;;;;;;18.83;8.73;;;;;;;0.62;78.53;101025.53;4986513;28;20104;-51
2023/01/20 05:06:53;;;;;;;19.70;8.73;;;;;;;0.65;78.64;101030.69;4989266;28;20045;-49
2023/01/20 05:09:19;;;;;;;22.80;8.48;;;;;;;0.67;78.45;101029.78;4980006;28;20049;-55
2023/01/20 05:11:44;;;;;;;25.95;9.48;;;;;;;0.67;77.95;101026.34;4986017;28;20045;-54
2023/01/20 05:14:10;;;;;;;21.48;8.85;;;;;;;0.67;78.56;101034.13;4979806;28;20042;-52
2023/01/20 05:16:36;;;;;;;19.02;7.68;;;;;;;0.67;78.21;101047.06;4985097;28;20053;-55
2023/01/20 05:19:02;;;;;;;9.13;5.32;;;;;;;0.63;78.69;101045.38;4991553;28;20085;-52
2023/01/20 05:21:27;;;;;;;24.85;7.00;;;;;;;0.65;78.19;101049.66;4986988;28;20049;-54
2023/01/20 05:23:53;;;;;;;20.13;8.13;;;;;;;0.66;78.31;101042.75;4987254;28;20042;-53
2023/01/20 05:26:20;;;;;;;21.42;8.65;;;;;;;0.65;78.18;101041.88;4988424;28;20034;-52
2023/01/20 05:28:46;;;;;;;17.38;8.52;;;;;;;0.67;78.93;101044.47;4983444;28;20053;-51
2023/01/20 05:31:11;;;;;;;23.67;8.18;;;;;;;0.68;78.43;101046.19;4968894;28;20030;-54
2023/01/20 05:33:38;;;;;;;22.77;8.57;;;;;;;0.68;78.59;101057.41;4970802;28;20160;-52
2023/01/20 05:36:05;;;;;;;18.75;8.45;;;;;;;0.68;78.16;101057.41;4983425;28;20026;-55
2023/01/20 05:38:30;;;;;;;12.77;6.18;;;;;;;0.70;78.76;101071.19;4972904;28;20494;-51
2023/01/20 05:41:07;;;;;;;19.05;8.48;;;;;;;0.75;78.37;101074.59;4981519;28;20062;-51
2023/01/20 05:43:33;;;;;;;18.92;8.63;;;;;;;0.80;78.76;101076.25;4998438;23;20038;-57
2023/01/20 05:45:59;;;;;;;24.83;8.48;;;;;;;0.79;78.66;101075.41;4992992;28;20033;-55
2023/01/20 05:48:25;;;;;;;17.88;7.90;;;;;;;0.79;78.20;101075.41;4996700;28;20033;-56
2023/01/20 05:50:50;;;;;;;23.63;7.38;;;;;;;0.76;78.00;101081.47;5001517;28;20028;-57
2023/01/20 05:53:16;;;;;;;22.80;8.65;;;;;;;0.74;78.34;101082.38;4998627;28;20034;-59
2023/01/20 05:55:42;;;;;;;26.63;9.52;;;;;;;0.74;78.55;101087.53;4993888;28;20112;-58
2023/01/20 05:58:07;;;;;;;20.23;8.18;;;;;;;0.77;78.91;101087.53;5005038;28;20045;-58
2023/01/20 06:00:34;;;;;;;19.80;8.10;;;;;;;0.76;78.78;101089.22;5006418;28;20109;-55
2023/01/20 06:03:00;;;;;;;17.58;7.85;;;;;;;0.80;78.83;101092.69;5004766;28;20063;-57
2023/01/20 06:05:26;;;;;;;17.05;8.13;;;;;;;0.81;78.19;101104.75;5008535;28;20464;-55
2023/01/20 06:07:53;;;;;;;18.05;8.10;;;;;;;0.82;78.03;101109.06;5000672;28;20034;-57
2023/01/20 06:10:19;;;;;;;18.60;8.02;;;;;;;0.84;78.12;101109.03;5001261;28;20033;-62
2023/01/20 06:12:50;;;;;;;26.95;8.65;;;;;;;0.84;77.86;101109.03;4997992;28;20030;-58
2023/01/20 06:15:16;;;;;;;18.65;8.35;;;;;;;0.83;78.37;101112.50;5012657;28;20508;-58
2023/01/20 06:17:41;;;;;;;19.98;7.38;;;;;;;0.84;78.63;101120.25;5005016;28;20042;-60
2023/01/20 06:20:09;;;;;;;20.35;9.15;;;;;;;0.86;78.50;101117.66;5005921;28;20435;-55
2023/01/20 06:22:35;;;;;;;27.08;9.25;;;;;;;0.86;78.41;101123.66;5001896;28;20034;-56
2023/01/20 06:25:00;;;;;;;20.77;8.75;;;;;;;0.84;78.03;101125.41;5007215;28;20033;-56
2023/01/20 06:27:26;;;;;;;22.65;9.50;;;;;;;0.84;78.26;101128.00;5003854;28;20444;-59
2023/01/20 06:29:51;;;;;;;16.88;7.18;;;;;;;0.86;78.21;101128.84;4982499;28;20030;-59
2023/01/20 06:32:16;;;;;;;22.95;7.55;;;;;;;0.87;78.08;101135.75;4988974;28;20034;-58
2023/01/20 06:34:42;;;;;;;20.58;8.13;;;;;;;0.84;77.88;101134.94;4998740;28;20997;-60
2023/01/20 06:37:07;;;;;;;24.42;8.05;;;;;;;0.82;78.04;101142.75;5002570;28;20045;-55
2023/01/20 06:39:33;;;;;;;15.02;7.38;;;;;;;0.80;78.52;101151.38;4998835;28;20463;-56
2023/01/20 06:41:59;;;;;;;16.45;7.78;;;;;;;0.83;78.46;101161.72;5000102;28;20565;-57
2023/01/20 06:44:25;;;;;;;22.00;8.32;;;;;;;0.85;77.91;101162.56;4989489;28;20030;-55
2023/01/20 06:46:51;;;;;;;23.33;9.27;;;;;;;0.85;78.30;101168.59;4993710;28;20034;-55
2023/01/20 06:49:17;;;;;;;22.33;9.57;;;;;;;0.85;78.10;101173.78;5008006;28;20042;-58
2023/01/20 06:51:42;;;;;;;22.23;9.15;;;;;;;0.84;77.82;101173.81;5003030;28;20021;-55
2023/01/20 06:54:08;;;;;;;25.77;8.43;;;;;;;0.81;78.45;101182.47;5000717;28;20077;-57
2023/01/20 06:56:33;;;;;;;23.80;7.43;;;;;;;0.84;78.06;101189.34;5007267;28;20030;-57
2023/01/20 06:58:59;;;;;;;17.70;8.60;;;;;;;0.88;77.95;101193.63;5001154;28;20025;-59
2023/01/20 07:01:26;;;;;;;16.45;6.97;;;;;;;0.91;78.38;101202.22;4997669;28;20517;-59
2023/01/20 07:03:52;;;;;;;20.60;8.55;;;;;;;0.86;77.81;101198.81;5007946;28;20034;-59
2023/01/20 07:06:37;;;;;;;21.42;8.43;;;;;;;0.87;78.05;101199.69;4991489;28;20029;-60
2023/01/20 07:09:04;;;;;;;19.02;8.20;;;;;;;0.89;78.33;101205.72;4999120;28;20063;-60
2023/01/20 07:11:34;;;;;;;25.17;8.10;;;;;;;0.89;77.59;101206.56;5006735;28;20432;-60
2023/01/20 07:13:59;;;;;;;20.67;8.18;;;;;;;0.85;78.11;101212.63;4990172;28;20040;-59
2023/01/20 07:16:25;;;;;;;15.13;7.65;;;;;;;0.91;78.20;101222.09;5007477;28;20030;-55
2023/01/20 07:18:51;;;;;;;17.02;7.10;;;;;;;0.91;77.93;101220.38;5005441;28;20489;-55
2023/01/20 07:21:17;;;;;;;15.98;8.38;;;;;;;0.94;77.57;101223.81;5006695;28;20140;-55
2023/01/20 07:23:43;;;;;;;27.77;11.98;;;;;;;0.95;77.46;101235.88;5004664;28;20116;-58
2023/01/20 07:26:18;;;;;;;22.85;9.18;;;;;;;0.91;77.52;101233.31;5003731;28;20117;-56
2023/01/20 07:28:43;;;;;;;16.00;6.70;;;;;;;0.96;77.88;101242.78;5011473;28;20026;-57
2023/01/20 07:31:14;;;;;;;18.23;8.18;;;;;;;1.00;77.71;101244.47;5010230;28;20032;-57
2023/01/20 07:33:41;;;;;;;17.48;8.07;;;;;;;1.00;77.61;101249.63;5000466;28;20030;-56
2023/01/20 07:36:07;;;;;;;30.40;9.18;;;;;;;1.03;77.80;101249.63;5003982;28;20518;-57
2023/01/20 07:38:34;;;;;;;21.70;9.23;;;;;;;1.07;77.35;101251.31;5007772;28;20061;-61
2023/01/20 07:41:01;;;;;;;20.33;8.90;;;;;;;1.08;77.27;101259.94;5009075;28;20054;-61
2023/01/20 07:43:27;;;;;;;22.27;9.45;;;;;;;1.06;77.30;101263.41;5009936;28;20036;-58
2023/01/20 07:45:57;;;;;;;21.80;10.27;;;;;;;1.10;77.74;101269.44;5009160;28;20030;-57
2023/01/20 07:48:24;;;;;;;22.23;9.57;;;;;;;1.16;77.55;101265.91;5008383;28;20033;-57
2023/01/20 07:51:06;;;;;;;18.52;7.65;;;;;;;1.21;77.16;101279.69;5000661;28;20040;-60
2023/01/20 07:53:40;;;;;;;17.23;8.15;;;;;;;1.25;77.26;101272.75;5009889;28;20045;-58
2023/01/20 07:56:09;;;;;;;21.30;7.20;;;;;;;1.28;76.92;101275.31;5011612;28;20389;-56
2023/01/20 07:58:35;;;;;;;17.95;8.27;;;;;;;1.30;76.69;101286.50;5007099;28;20030;-57
2023/01/20 08:01:13;;;;;;;18.45;8.63;;;;;;;1.30;76.92;101287.38;5008011;28;20030;-59
2023/01/20 08:03:39;;;;;;;19.23;9.98;;;;;;;1.30;76.76;101284.78;5009957;28;20017;-56
2023/01/20 08:06:06;;;;;;;19.73;8.65;;;;;;;1.30;76.86;101286.50;5011333;28;20072;-57
2023/01/20 08:08:32;;;;;;;18.98;8.38;;;;;;;1.36;77.04;101289.03;5004555;28;20057;-58
2023/01/20 08:11:00;;;;;;;19.77;9.68;;;;;;;1.40;76.73;101295.03;5001736;28;20041;-58
2023/01/20 08:13:26;;;;;;;17.40;8.35;;;;;;;1.43;76.68;101306.28;4998126;28;20034;-57
2023/01/20 08:15:51;;;;;;;18.90;8.15;;;;;;;1.38;76.80;101305.44;5005868;28;20030;-57
2023/01/20 08:18:17;;;;;;;23.63;8.35;;;;;;;1.35;76.58;101303.75;5006307;28;20041;-56
2023/01/20 08:20:42;;;;;;;18.40;7.95;;;;;;;1.37;76.70;101304.56;5006360;28;20022;-57
2023/01/20 08:23:08;;;;;;;14.93;8.13;;;;;;;1.41;76.63;101310.59;5010900;28;20041;-57
2023/01/20 08:25:33;;;;;;;22.90;8.95;;;;;;;1.39;76.55;101309.75;5010426;28;20021;-57
2023/01/20 08:27:59;;;;;;;22.17;9.07;;;;;;;1.37;76.61;101317.53;5006659;28;20109;-59
2023/01/20 08:30:24;;;;;;;22.58;8.48;;;;;;;1.39;76.44;101321.84;5001788;28;20497;-60
2023/01/20 08:32:49;;;;;;;20.85;9.35;;;;;;;1.40;76.39;101321.84;5004487;28;20038;-57
2023/01/20 08:35:15;;;;;;;24.98;10.75;;;;;;;1.42;76.53;101327.88;5009248;28;20026;-59
2023/01/20 08:37:41;;;;;;;28.42;8.90;;;;;;;1.43;76.45;101320.94;5011995;28;20041;-60
2023/01/20 08:40:08;;;;;;;21.42;9.38;;;;;;;1.43;76.37;101327.00;5012325;28;20116;-58
2023/01/20 08:42:37;;;;;;;15.85;8.55;;;;;;;1.45;76.30;101320.06;5005117;28;20022;-62
2023/01/20 08:45:07;;;;;;;18.70;7.85;;;;;;;1.49;76.18;101326.94;5006526;28;20029;-59
2023/01/20 08:47:43;;;;;;;35.60;15.32;;;;;;;1.57;76.33;101329.44;5005224;28;20116;-57
2023/01/20 08:50:10;;;;;;;27.42;11.32;;;;;;;1.63;75.93;101333.69;5009841;28;20107;-58
2023/01/20 08:52:35;;;;;;;19.58;9.32;;;;;;;1.71;76.08;101329.31;5011087;28;20104;-60
2023/01/20 08:55:01;;;;;;;22.77;9.70;;;;;;;1.77;75.56;101337.00;5005107;28;20749;-59
2023/01/20 08:57:26;;;;;;;17.58;8.35;;;;;;;1.83;75.42;101339.53;5001887;28;20037;-58
2023/01/20 08:59:53;;;;;;;20.33;7.95;;;;;;;1.87;75.37;101340.34;5007816;28;20040;-61
2023/01/20 09:02:19;;;;;;;16.48;8.35;;;;;;;1.83;75.05;101344.72;5006832;28;20022;-59
2023/01/20 09:04:45;;;;;;;21.65;8.82;;;;;;;1.82;75.44;101355.97;5016309;28;20370;-57
2023/01/20 09:07:11;;;;;;;23.20;8.85;;;;;;;1.84;75.08;101353.34;4999254;28;20038;-59
2023/01/20 09:09:38;;;;;;;17.13;7.95;;;;;;;1.81;75.43;101353.41;5008127;28;20179;-56
2023/01/20 09:12:06;;;;;;;28.45;12.93;;;;;;;1.82;75.60;101345.59;5006200;28;20428;-57
2023/01/20 09:14:32;;;;;;;23.73;9.52;;;;;;;1.90;75.38;101360.22;4994119;28;20568;-59
2023/01/20 09:16:59;;;;;;;20.73;8.13;;;;;;;1.97;74.95;101364.47;5007428;28;20037;-58
2023/01/20 09:19:25;;;;;;;16.05;7.60;;;;;;;1.97;75.07;101367.06;5008529;28;20026;-61
2023/01/20 09:21:50;;;;;;;20.85;8.70;;;;;;;1.92;74.60;101376.63;5011239;28;20140;-58
2023/01/20 09:24:16;;;;;;;21.10;8.63;;;;;;;1.85;74.73;101375.84;5000642;28;20026;-56
2023/01/20 09:26:41;;;;;;;22.88;9.23;;;;;;;1.83;74.99;101377.59;5001219;28;20060;-58
2023/01/20 09:29:11;;;;;;;19.13;9.45;;;;;;;1.88;75.17;101381.00;5003858;28;20053;-56
2023/01/20 09:31:39;;;;;;;23.38;9.27;;;;;;;1.94;75.03;101385.25;5003907;28;20018;-57
2023/01/20 09:34:04;;;;;;;25.25;10.05;;;;;;;1.94;74.83;101385.25;5002804;28;20033;-57
2023/01/20 09:36:29;;;;;;;20.58;9.57;;;;;;;1.97;74.99;101395.63;5007382;28;20033;-57
2023/01/20 09:43:52;;;;;;;16.80;8.73;;;;;;;2.12;74.74;101404.94;5007873;28;20383;-55
2023/01/20 09:45:08;;;;;;;28.05;10.52;;;;;;;2.18;74.31;101404.03;5002061;28;20113;-55
2023/01/20 09:47:46;;;;;;;23.67;10.65;;;;;;;2.14;74.30;101410.97;5008161;28;20029;-55
2023/01/20 09:53:34;;;;;;;34.00;12.77;;;;;;;2.18;74.15;101414.44;5005608;28;20064;-57
2023/01/20 09:56:11;;;;;;;17.40;9.25;;;;;;;2.16;74.31;101408.38;4998096;28;20030;-57
2023/01/20 09:58:39;;;;;;;20.15;8.65;;;;;;;2.16;74.15;101409.22;4999972;28;20049;-55
2023/01/20 10:01:46;;;;;;;25.20;9.10;;;;;;;2.24;74.02;101407.41;5001018;28;20030;-56
2023/01/20 10:04:18;;;;;;;20.25;8.68;;;;;;;2.27;73.97;101419.50;5010688;28;20045;-59
2023/01/20 10:07:07;;;;;;;21.75;9.98;;;;;;;2.25;74.23;101416.94;5006844;28;20029;-55
2023/01/20 10:09:36;;;;;;;21.73;8.55;;;;;;;2.27;73.96;101417.75;5005590;28;20022;-55
2023/01/20 10:12:17;;;;;;;22.35;9.05;;;;;;;2.26;74.12;101428.16;5005101;28;20606;-58
2023/01/20 10:14:51;;;;;;;31.67;13.57;;;;;;;2.25;73.90;101432.50;5007602;28;20104;-55
2023/01/20 10:17:33;;;;;;;33.80;13.32;;;;;;;2.31;73.98;101431.56;4995288;28;20044;-58
2023/01/20 10:20:11;;;;;;;26.20;12.93;;;;;;;2.36;74.08;101436.72;4998765;28;20526;-56
2023/01/20 10:22:44;;;;;;;25.60;12.02;;;;;;;2.40;73.90;101447.03;5005881;28;20095;-57
2023/01/20 10:25:20;;;;;;;22.95;8.27;;;;;;;2.41;73.35;101453.94;5004566;28;20033;-57
2023/01/20 10:27:55;;;;;;;20.17;9.73;;;;;;;2.33;73.30;101450.59;5010175;28;20033;-59
2023/01/20 10:30:28;;;;;;;21.73;9.23;;;;;;;2.32;73.46;101448.88;5009323;28;20148;-59
2023/01/20 10:32:57;;;;;;;16.60;8.35;;;;;;;2.32;73.21;101448.88;5006673;28;20497;-57
2023/01/20 10:35:29;;;;;;;22.88;7.78;;;;;;;2.32;73.04;101448.88;5007769;28;20977;-56
2023/01/20 10:37:57;;;;;;;22.40;8.45;;;;;;;2.32;72.94;101450.59;5012919;28;20034;-55
2023/01/20 10:40:57;;;;;;;20.83;8.35;;;;;;;2.32;72.73;101454.06;5011670;28;20112;-57
2023/01/20 10:43:24;;;;;;;20.42;8.45;;;;;;;2.31;72.57;101456.66;4964627;28;20105;-58
2023/01/20 10:46:08;;;;;;;26.90;9.15;;;;;;;2.24;72.89;101467.16;4994117;28;20041;-56
2023/01/20 10:48:58;;;;;;;18.02;7.97;;;;;;;2.27;72.95;101453.25;5004945;28;20091;-56
2023/01/20 10:51:26;;;;;;;15.60;7.95;;;;;;;2.37;73.06;101459.22;5006258;28;20038;-57
2023/01/20 10:54:23;;;;;;;21.83;9.43;;;;;;;2.41;72.68;101468.69;5011667;28;20044;-58
2023/01/20 10:56:54;;;;;;;24.13;9.75;;;;;;;2.39;72.72;101471.28;5003584;28;20116;-57
2023/01/20 10:59:23;;;;;;;21.95;8.90;;;;;;;2.31;72.65;101473.13;5010005;28;20704;-60
2023/01/20 11:01:51;;;;;;;21.83;10.65;;;;;;;2.32;73.10;101473.97;5012743;28;20100;-60
2023/01/20 11:04:19;;;;;;;28.65;11.30;;;;;;;2.35;73.00;101474.78;5012132;28;20022;-61
2023/01/20 11:06:52;;;;;;;23.23;10.43;;;;;;;2.41;72.89;101479.94;5009671;28;20022;-58
2023/01/20 11:09:36;;;;;;;24.25;11.95;;;;;;;2.43;72.79;101482.50;5014823;28;20267;-58
2023/01/20 11:12:11;;;;;;;18.75;9.45;;;;;;;2.43;72.88;101483.38;5005139;28;20014;-62
2023/01/20 11:14:36;;;;;;;22.08;9.02;;;;;;;2.45;72.84;101483.34;5010875;28;20022;-58
2023/01/20 11:17:05;;;;;;;18.70;8.40;;;;;;;2.36;72.82;101480.88;5004163;28;20026;-59
2023/01/20 11:19:52;;;;;;;17.05;8.93;;;;;;;2.29;72.75;101485.28;5007296;28;20096;-61
2023/01/20 11:22:36;;;;;;;26.50;9.10;;;;;;;2.30;73.32;101492.19;5007588;28;20593;-58
2023/01/20 11:25:04;;;;;;;19.38;9.25;;;;;;;2.34;72.75;101488.69;5004408;28;20026;-56
2023/01/20 11:27:41;;;;;;;17.92;8.63;;;;;;;2.40;72.54;101491.19;4996668;28;20957;-57
2023/01/20 11:30:35;;;;;;;25.42;9.02;;;;;;;2.40;72.56;101496.38;5007544;28;20037;-59
2023/01/20 11:33:27;;;;;;;18.75;8.95;;;;;;;2.43;72.31;101493.75;5011276;28;20083;-56
2023/01/20 11:36:00;;;;;;;28.30;9.82;;;;;;;2.47;72.37;101488.53;4995748;28;20077;-57
2023/01/20 11:38:45;;;;;;;30.33;9.75;;;;;;;2.52;72.06;101491.91;5014227;28;20029;-61
2023/01/20 11:41:19;;;;;;;23.00;9.70;;;;;;;2.57;72.29;101487.53;5003525;28;20515;-56